createdAt,value
2018-08-07T00:02:22.542Z,21.60
2018-08-07T00:04:51.148Z,21.70
2018-08-07T00:07:19.746Z,21.60
2018-08-07T00:09:48.436Z,21.50
2018-08-07T00:12:17.144Z,21.50
2018-08-07T00:14:45.782Z,21.50
2018-08-07T00:17:14.494Z,21.50
2018-08-07T00:19:43.060Z,21.50
2018-08-07T00:22:11.693Z,21.40
2018-08-07T00:24:40.336Z,21.50
2018-08-07T00:27:08.916Z,21.60
2018-08-07T00:29:37.525Z,21.60
2018-08-07T00:32:06.160Z,21.50
2018-08-07T00:34:34.785Z,21.50
2018-08-07T00:37:03.476Z,21.50
2018-08-07T00:39:32.122Z,21.50
2018-08-07T00:42:00.855Z,21.50
2018-08-07T00:44:29.503Z,21.50
2018-08-07T00:46:58.076Z,21.50
2018-08-07T00:49:26.697Z,21.40
2018-08-07T00:51:55.373Z,21.40
2018-08-07T00:54:24.120Z,21.40
2018-08-07T00:56:52.776Z,21.50
2018-08-07T00:59:21.397Z,21.50
2018-08-07T01:01:50.026Z,21.50
2018-08-07T01:04:18.620Z,21.60
2018-08-07T01:06:47.306Z,21.50
2018-08-07T01:09:15.893Z,21.50
2018-08-07T01:11:44.531Z,21.50
2018-08-07T01:14:13.169Z,21.50
2018-08-07T01:16:41.799Z,21.50
2018-08-07T01:19:10.537Z,21.50
2018-08-07T01:21:39.232Z,21.40
2018-08-07T01:24:07.871Z,21.30
2018-08-07T01:26:36.542Z,21.30
2018-08-07T01:29:06.580Z,21.30
2018-08-07T01:34:03.564Z,21.30
2018-08-07T01:36:32.170Z,21.30
2018-08-07T01:39:00.855Z,21.20
2018-08-07T01:41:29.516Z,21.20
2018-08-07T01:43:58.099Z,21.10
2018-08-07T01:46:26.737Z,21.20
2018-08-07T01:48:55.370Z,21.10
2018-08-07T01:51:24.006Z,21.10
2018-08-07T01:53:52.613Z,21.10
2018-08-07T01:56:21.223Z,21.10
2018-08-07T01:58:49.812Z,21.00
2018-08-07T02:01:18.431Z,21.00
2018-08-07T02:03:47.071Z,20.90
2018-08-07T02:06:15.766Z,20.80
2018-08-07T02:08:44.383Z,20.80
2018-08-07T02:11:13.021Z,20.80
2018-08-07T02:13:41.634Z,20.90
2018-08-07T02:16:10.240Z,20.80
2018-08-07T02:18:38.853Z,20.80
2018-08-07T02:21:07.598Z,20.80
2018-08-07T02:23:36.227Z,20.80
2018-08-07T02:26:04.993Z,20.80
2018-08-07T02:28:33.599Z,20.80
2018-08-07T02:31:02.287Z,20.80
2018-08-07T02:33:30.943Z,20.70
2018-08-07T02:35:59.661Z,20.50
2018-08-07T02:40:56.504Z,20.50
2018-08-07T02:43:25.108Z,20.40
2018-08-07T02:45:53.734Z,20.40
2018-08-07T02:48:24.520Z,20.50
2018-08-07T02:50:53.212Z,20.50
2018-08-07T02:53:21.846Z,20.30
2018-08-07T02:55:50.449Z,20.30
2018-08-07T02:58:19.101Z,20.30
2018-08-07T03:00:47.688Z,20.30
2018-08-07T03:03:16.318Z,20.30
2018-08-07T03:05:44.924Z,20.20
2018-08-07T03:08:13.501Z,20.20
2018-08-07T03:10:42.153Z,20.20
2018-08-07T03:13:10.833Z,20.20
2018-08-07T03:15:39.484Z,20.30
2018-08-07T03:18:08.199Z,20.30
2018-08-07T03:20:36.773Z,20.30
2018-08-07T03:23:05.459Z,20.20
2018-08-07T03:25:34.065Z,20.20
2018-08-07T03:28:02.763Z,20.20
2018-08-07T03:30:31.293Z,20.20
2018-08-07T03:32:59.907Z,20.20
2018-08-07T03:35:28.458Z,20.20
2018-08-07T03:37:57.140Z,20.20
2018-08-07T03:40:25.761Z,20.20
2018-08-07T03:42:54.409Z,20.20
2018-08-07T03:45:22.948Z,20.20
2018-08-07T03:47:51.595Z,20.10
2018-08-07T03:50:20.236Z,19.90
2018-08-07T03:52:48.903Z,19.80
2018-08-07T03:55:18.643Z,19.80
2018-08-07T04:00:17.796Z,19.80
2018-08-07T04:02:46.644Z,19.80
2018-08-07T04:05:15.369Z,19.80
2018-08-07T04:07:44.000Z,19.80
2018-08-07T04:10:14.212Z,19.70
2018-08-07T04:12:42.903Z,19.70
2018-08-07T04:15:13.092Z,19.60
2018-08-07T04:17:42.422Z,19.60
2018-08-07T04:20:13.606Z,19.60
2018-08-07T04:22:42.346Z,19.50
2018-08-07T04:25:11.017Z,19.60
2018-08-07T04:27:39.715Z,19.60
2018-08-07T04:30:12.995Z,19.60
2018-08-07T04:32:42.225Z,19.60
2018-08-07T04:35:11.260Z,19.60
2018-08-07T04:37:39.938Z,19.50
2018-08-07T04:40:09.407Z,19.60
2018-08-07T04:42:38.981Z,19.60
2018-08-07T04:45:10.413Z,19.70
2018-08-07T04:47:39.254Z,19.70
2018-08-07T04:50:08.974Z,19.80
2018-08-07T04:52:38.345Z,19.90
2018-08-07T04:55:08.330Z,19.90
2018-08-07T04:57:37.520Z,20.00
2018-08-07T05:00:13.816Z,20.00
2018-08-07T05:02:44.238Z,20.10
2018-08-07T05:05:13.143Z,20.20
2018-08-07T05:07:43.128Z,20.30
2018-08-07T05:10:14.369Z,20.30
2018-08-07T05:12:44.175Z,20.40
2018-08-07T05:15:13.548Z,20.40
2018-08-07T05:17:43.765Z,20.40
2018-08-07T05:20:12.478Z,20.50
2018-08-07T05:22:41.237Z,20.60
2018-08-07T05:25:11.042Z,20.60
2018-08-07T05:27:40.006Z,20.80
2018-08-07T05:30:10.144Z,20.70
2018-08-07T05:32:38.709Z,21.00
2018-08-07T05:35:07.450Z,21.00
2018-08-07T05:37:36.021Z,21.10
2018-08-07T05:40:05.045Z,21.20
2018-08-07T05:42:33.805Z,21.30
2018-08-07T05:45:02.437Z,21.40
2018-08-07T05:47:31.037Z,21.40
2018-08-07T05:49:59.777Z,21.50
2018-08-07T05:52:28.353Z,21.50
2018-08-07T05:54:56.976Z,21.50
2018-08-07T05:57:25.830Z,21.60
2018-08-07T05:59:54.461Z,21.70
2018-08-07T06:02:23.078Z,21.80
2018-08-07T06:04:51.672Z,21.90
2018-08-07T06:07:20.335Z,22.10
2018-08-07T06:09:49.186Z,22.20
2018-08-07T06:12:17.813Z,22.20
2018-08-07T06:14:46.437Z,22.40
2018-08-07T06:17:14.997Z,22.50
2018-08-07T06:19:43.605Z,22.60
2018-08-07T06:22:12.350Z,22.80
2018-08-07T06:24:41.083Z,23.00
2018-08-07T06:27:09.654Z,23.00
2018-08-07T06:29:38.339Z,23.10
2018-08-07T06:32:07.310Z,23.20
2018-08-07T06:34:35.938Z,23.20
2018-08-07T06:37:04.637Z,23.30
2018-08-07T06:39:33.258Z,23.50
2018-08-07T06:42:01.825Z,23.60
2018-08-07T06:44:30.384Z,23.70
2018-08-07T06:46:59.100Z,23.90
2018-08-07T06:49:27.723Z,24.10
2018-08-07T06:51:56.436Z,24.30
2018-08-07T06:54:25.021Z,24.30
2018-08-07T06:56:53.632Z,24.40
2018-08-07T06:59:22.249Z,24.60
2018-08-07T07:01:50.960Z,24.70
2018-08-07T07:04:19.505Z,24.90
2018-08-07T07:06:48.118Z,25.00
2018-08-07T07:09:16.739Z,25.20
2018-08-07T07:11:45.403Z,25.40
2018-08-07T07:14:13.979Z,25.60
2018-08-07T07:16:42.668Z,25.70
2018-08-07T07:19:11.274Z,25.90
2018-08-07T07:21:39.854Z,26.20
2018-08-07T07:24:08.518Z,26.30
2018-08-07T07:26:37.197Z,26.50
2018-08-07T07:29:05.788Z,26.70
2018-08-07T07:31:34.385Z,26.80
2018-08-07T07:34:03.025Z,26.80
2018-08-07T07:36:31.585Z,26.90
2018-08-07T07:39:00.178Z,26.80
2018-08-07T07:41:28.795Z,26.80
2018-08-07T07:43:57.461Z,26.80
2018-08-07T07:46:26.203Z,26.70
2018-08-07T07:48:54.808Z,26.70
2018-08-07T07:51:23.447Z,26.70
2018-08-07T07:53:52.062Z,26.70
2018-08-07T07:56:20.657Z,26.60
2018-08-07T07:58:49.328Z,26.40
2018-08-07T08:01:18.980Z,26.50
2018-08-07T08:03:47.552Z,26.30
2018-08-07T08:06:16.155Z,26.30
2018-08-07T08:08:44.776Z,26.30
2018-08-07T08:11:13.485Z,26.30
2018-08-07T08:13:42.798Z,26.40
2018-08-07T08:16:11.483Z,26.40
2018-08-07T08:18:40.150Z,26.40
2018-08-07T08:21:08.910Z,26.50
2018-08-07T08:23:37.578Z,26.50
2018-08-07T08:26:06.285Z,26.60
2018-08-07T08:28:34.762Z,26.70
2018-08-07T08:33:31.626Z,27.00
2018-08-07T08:38:28.489Z,27.40
2018-08-07T08:40:57.182Z,27.40
2018-08-07T08:43:25.796Z,27.40
2018-08-07T08:45:54.496Z,27.50
2018-08-07T08:48:23.227Z,27.40
2018-08-07T08:50:51.889Z,27.50
2018-08-07T08:53:20.466Z,27.70
2018-08-07T08:55:49.061Z,28.00
2018-08-07T08:58:17.722Z,28.30
2018-08-07T09:00:46.336Z,28.40
2018-08-07T09:03:15.070Z,28.50
2018-08-07T09:05:43.632Z,28.70
2018-08-07T09:08:12.250Z,28.80
2018-08-07T09:10:41.116Z,29.00
2018-08-07T09:13:09.596Z,29.20
2018-08-07T09:15:38.144Z,29.40
2018-08-07T09:18:07.115Z,29.60
2018-08-07T09:20:35.792Z,29.70
2018-08-07T09:23:04.525Z,29.80
2018-08-07T09:25:33.324Z,30.00
2018-08-07T09:30:36.250Z,30.30
2018-08-07T09:33:05.130Z,30.30
2018-08-07T09:35:33.699Z,30.20
2018-08-07T09:38:02.381Z,30.20
2018-08-07T09:40:30.953Z,30.40
2018-08-07T09:42:59.614Z,30.50
2018-08-07T09:45:31.139Z,30.70
2018-08-07T09:48:00.335Z,30.90
2018-08-07T09:50:29.012Z,31.10
2018-08-07T09:52:57.662Z,31.20
2018-08-07T09:55:26.313Z,31.30
2018-08-07T09:57:55.042Z,31.30
2018-08-07T10:00:29.031Z,31.10
2018-08-07T10:03:01.037Z,31.20
2018-08-07T10:05:31.250Z,31.40
2018-08-07T10:07:59.945Z,31.70
2018-08-07T10:10:29.042Z,31.80
2018-08-07T10:12:57.691Z,32.00
2018-08-07T10:15:26.359Z,32.20
2018-08-07T10:17:55.040Z,32.40
2018-08-07T10:20:23.628Z,32.60
2018-08-07T10:22:52.287Z,32.80
2018-08-07T10:25:21.253Z,33.10
2018-08-07T10:27:50.200Z,33.10
2018-08-07T10:30:21.531Z,33.10
2018-08-07T10:32:50.713Z,33.10
2018-08-07T10:35:19.463Z,33.10
2018-08-07T10:37:48.457Z,33.20
2018-08-07T10:40:19.615Z,33.40
2018-08-07T10:42:48.183Z,33.40
2018-08-07T10:45:20.283Z,33.50
2018-08-07T10:47:49.122Z,33.40
2018-08-07T10:50:21.164Z,33.50
2018-08-07T10:52:50.159Z,33.80
2018-08-07T10:55:19.334Z,33.80
2018-08-07T10:57:49.440Z,34.00
2018-08-07T11:00:23.532Z,33.90
2018-08-07T11:02:52.901Z,34.00
2018-08-07T11:05:22.163Z,33.90
2018-08-07T11:07:50.929Z,34.00
2018-08-07T11:10:20.062Z,33.70
2018-08-07T11:12:48.694Z,33.70
2018-08-07T11:17:50.915Z,33.50
2018-08-07T11:20:19.724Z,33.30
2018-08-07T11:22:49.431Z,33.30
2018-08-07T11:25:19.352Z,33.20
2018-08-07T11:27:48.030Z,32.80
2018-08-07T11:30:18.558Z,32.60
2018-08-07T11:32:47.561Z,32.60
2018-08-07T11:35:16.672Z,32.40
2018-08-07T11:37:46.975Z,32.20
2018-08-07T11:40:17.497Z,32.10
2018-08-07T11:42:47.081Z,32.00
2018-08-07T11:45:17.001Z,31.90
2018-08-07T11:47:45.695Z,31.70
2018-08-07T11:50:17.180Z,31.50
2018-08-07T11:52:45.932Z,31.40
2018-08-07T11:55:15.983Z,31.30
2018-08-07T11:57:45.429Z,31.10
2018-08-07T12:00:18.817Z,31.00
2018-08-07T12:05:16.368Z,30.80
2018-08-07T12:07:44.972Z,30.80
2018-08-07T12:12:43.765Z,30.60
2018-08-07T12:15:14.996Z,30.40
2018-08-07T12:17:43.740Z,30.30
2018-08-07T12:20:12.375Z,30.30
2018-08-07T12:22:41.079Z,30.10
2018-08-07T12:27:38.913Z,29.70
2018-08-07T12:30:12.191Z,29.40
2018-08-07T12:32:40.850Z,29.20
2018-08-07T12:37:38.462Z,28.60
2018-08-07T12:40:10.335Z,28.30
2018-08-07T12:42:39.069Z,28.20
2018-08-07T12:47:36.798Z,27.90
2018-08-07T12:50:06.906Z,27.80
2018-08-07T12:52:35.638Z,27.80
2018-08-07T12:55:04.518Z,27.70
2018-08-07T12:57:33.197Z,27.70
2018-08-07T13:00:02.393Z,27.60
2018-08-07T13:02:31.088Z,27.60
2018-08-07T13:04:59.660Z,27.40
2018-08-07T13:07:28.277Z,27.40
2018-08-07T13:09:56.991Z,27.30
2018-08-07T13:12:25.611Z,27.30
2018-08-07T13:14:54.275Z,27.20
2018-08-07T13:17:22.915Z,26.90
2018-08-07T13:19:51.472Z,26.60
2018-08-07T13:22:20.094Z,26.30
2018-08-07T13:27:16.998Z,26.00
2018-08-07T13:29:45.645Z,25.00
2018-08-07T13:32:14.286Z,24.70
2018-08-07T13:34:42.974Z,24.30
2018-08-07T13:37:11.795Z,24.10
2018-08-07T13:39:40.439Z,24.00
2018-08-07T13:42:09.219Z,24.00
2018-08-07T13:44:37.832Z,24.00
2018-08-07T13:47:06.956Z,24.10
2018-08-07T13:49:35.622Z,24.20
2018-08-07T13:52:04.369Z,24.30
2018-08-07T13:54:32.958Z,24.40
2018-08-07T13:57:01.660Z,24.50
2018-08-07T13:59:30.261Z,24.60
2018-08-07T14:01:59.017Z,24.60
2018-08-07T14:04:27.682Z,24.80
2018-08-07T14:06:56.336Z,24.80
2018-08-07T14:09:25.053Z,24.70
2018-08-07T14:11:53.669Z,24.50
2018-08-07T14:14:23.297Z,24.40
2018-08-07T14:16:52.021Z,24.40
2018-08-07T14:19:20.626Z,24.50
2018-08-07T14:21:49.354Z,24.80
2018-08-07T14:24:18.048Z,25.00
2018-08-07T14:26:46.751Z,25.20
2018-08-07T14:29:15.402Z,25.30
2018-08-07T14:31:44.037Z,25.50
2018-08-07T14:34:12.694Z,25.80
2018-08-07T14:36:42.438Z,26.00
2018-08-07T14:39:11.470Z,26.20
2018-08-07T14:41:40.324Z,26.20
2018-08-07T14:44:09.019Z,26.00
2018-08-07T14:46:37.579Z,26.20
2018-08-07T14:49:06.267Z,26.30
2018-08-07T14:54:03.260Z,26.50
2018-08-07T14:56:31.861Z,26.60
2018-08-07T14:59:00.469Z,26.70
2018-08-07T15:01:29.134Z,26.60
2018-08-07T15:03:57.909Z,26.70
2018-08-07T15:06:26.679Z,26.80
2018-08-07T15:08:55.186Z,26.90
2018-08-07T15:11:23.925Z,26.90
2018-08-07T15:13:52.545Z,27.00
2018-08-07T15:16:21.173Z,27.00
2018-08-07T15:18:49.784Z,27.10
2018-08-07T15:23:46.625Z,26.50
2018-08-07T15:26:15.295Z,26.40
2018-08-07T15:28:43.923Z,26.10
2018-08-07T15:31:12.528Z,26.10
2018-08-07T15:33:41.124Z,26.00
2018-08-07T15:36:09.756Z,25.90
2018-08-07T15:38:38.407Z,26.00
2018-08-07T15:41:07.050Z,26.00
2018-08-07T15:43:35.830Z,26.10
2018-08-07T15:46:04.483Z,26.20
2018-08-07T15:48:33.144Z,26.30
2018-08-07T15:51:01.814Z,26.30
2018-08-07T15:53:30.548Z,26.00
2018-08-07T15:55:59.088Z,26.10
2018-08-07T15:58:27.744Z,26.10
2018-08-07T16:00:56.340Z,26.10
2018-08-07T16:03:25.008Z,26.20
2018-08-07T16:08:21.872Z,26.20
2018-08-07T16:10:50.473Z,26.30
2018-08-07T16:13:19.272Z,26.30
2018-08-07T16:15:47.988Z,26.20
2018-08-07T16:18:16.578Z,26.30
2018-08-07T16:20:45.148Z,26.30
2018-08-07T16:23:13.709Z,26.30
2018-08-07T16:25:42.338Z,26.30
2018-08-07T16:30:39.221Z,26.50
2018-08-07T16:33:07.806Z,26.50
2018-08-07T16:38:04.715Z,26.60
2018-08-07T16:40:33.630Z,26.50
2018-08-07T16:43:03.181Z,26.60
2018-08-07T16:45:32.865Z,26.60
2018-08-07T16:50:29.918Z,26.90
2018-08-07T16:52:59.141Z,27.10
2018-08-07T16:55:29.264Z,27.30
2018-08-07T16:57:57.997Z,27.50
2018-08-07T17:00:26.716Z,27.80
2018-08-07T17:02:55.524Z,27.90
2018-08-07T17:05:24.311Z,28.00
2018-08-07T17:07:53.085Z,28.20
2018-08-07T17:10:24.588Z,28.30
2018-08-07T17:12:53.357Z,28.40
2018-08-07T17:15:22.316Z,28.60
2018-08-07T17:17:51.259Z,28.60
2018-08-07T17:20:21.074Z,28.60
2018-08-07T17:22:50.153Z,28.70
2018-08-07T17:25:20.081Z,28.70
2018-08-07T17:27:49.255Z,28.50
2018-08-07T17:30:19.712Z,28.40
2018-08-07T17:32:49.405Z,28.20
2018-08-07T17:35:20.696Z,28.00
2018-08-07T17:37:50.718Z,28.10
2018-08-07T17:40:20.945Z,28.00
2018-08-07T17:42:49.672Z,27.80
2018-08-07T17:45:18.395Z,27.70
2018-08-07T17:47:47.137Z,27.60
2018-08-07T17:50:17.829Z,27.20
2018-08-07T17:52:46.742Z,27.00
2018-08-07T17:55:15.570Z,26.60
2018-08-07T17:57:44.334Z,26.10
2018-08-07T18:00:17.216Z,25.60
2018-08-07T18:02:46.122Z,25.30
2018-08-07T18:05:14.871Z,25.10
2018-08-07T18:07:46.276Z,24.70
2018-08-07T18:10:16.445Z,24.60
2018-08-07T18:12:45.198Z,24.30
2018-08-07T18:15:15.222Z,24.10
2018-08-07T18:17:44.360Z,23.90
2018-08-07T18:20:15.530Z,23.60
2018-08-07T18:22:44.148Z,23.40
2018-08-07T18:25:12.807Z,23.30
2018-08-07T18:27:41.640Z,23.30
2018-08-07T18:30:14.662Z,23.10
2018-08-07T18:32:43.722Z,22.90
2018-08-07T18:35:17.277Z,22.60
2018-08-07T18:37:45.926Z,22.50
2018-08-07T18:40:14.640Z,22.50
2018-08-07T18:42:43.280Z,22.30
2018-08-07T18:45:13.834Z,22.20
2018-08-07T18:47:43.339Z,22.00
2018-08-07T18:50:13.952Z,21.90
2018-08-07T18:52:42.683Z,21.70
2018-08-07T18:55:13.538Z,21.60
2018-08-07T19:00:14.120Z,21.50
2018-08-07T19:05:13.970Z,21.20
2018-08-07T19:07:42.721Z,21.20
2018-08-07T19:10:12.167Z,21.20
2018-08-07T19:12:40.911Z,21.20
2018-08-07T19:15:10.321Z,21.20
2018-08-07T19:17:38.952Z,21.20
2018-08-07T19:20:08.645Z,21.20
2018-08-07T19:22:37.362Z,21.10
2018-08-07T19:25:07.343Z,21.10
2018-08-07T19:27:36.061Z,21.00
2018-08-07T19:30:07.409Z,20.90
2018-08-07T19:32:35.947Z,20.90
2018-08-07T19:35:04.889Z,20.90
2018-08-07T19:37:33.409Z,20.90
2018-08-07T19:40:02.384Z,20.90
2018-08-07T19:42:30.962Z,20.90
2018-08-07T19:44:59.573Z,20.80
2018-08-07T19:47:28.279Z,20.70
2018-08-07T19:49:56.917Z,20.70
2018-08-07T19:52:25.494Z,20.60
2018-08-07T19:54:54.185Z,20.60
2018-08-07T19:57:22.795Z,20.50
2018-08-07T19:59:51.384Z,20.50
2018-08-07T20:02:20.010Z,20.60
2018-08-07T20:04:48.695Z,20.50
2018-08-07T20:07:17.316Z,20.40
2018-08-07T20:09:45.885Z,20.30
2018-08-07T20:12:14.537Z,20.30
2018-08-07T20:14:43.127Z,20.30
2018-08-07T20:17:11.932Z,20.30
2018-08-07T20:19:40.537Z,20.30
2018-08-07T20:22:13.508Z,20.30
2018-08-07T20:24:42.167Z,20.30
2018-08-07T20:27:10.820Z,20.30
2018-08-07T20:29:39.542Z,20.30
2018-08-07T20:32:08.549Z,20.40
2018-08-07T20:34:37.139Z,20.30
2018-08-07T20:37:06.039Z,20.30
2018-08-07T20:39:34.690Z,20.40
2018-08-07T20:42:03.390Z,20.40
2018-08-07T20:44:31.917Z,20.40
2018-08-07T20:47:00.566Z,20.40
2018-08-07T20:49:29.160Z,20.40
2018-08-07T20:51:57.810Z,20.40
2018-08-07T20:54:26.468Z,20.30
2018-08-07T20:56:55.338Z,20.30
2018-08-07T20:59:23.981Z,20.20
2018-08-07T21:01:52.633Z,20.20
2018-08-07T21:04:21.285Z,20.20
2018-08-07T21:06:49.981Z,20.20
2018-08-07T21:09:18.646Z,20.20
2018-08-07T21:11:47.737Z,20.20
2018-08-07T21:14:16.363Z,20.30
2018-08-07T21:16:44.984Z,20.20
2018-08-07T21:19:13.541Z,20.20
2018-08-07T21:21:42.243Z,20.20
2018-08-07T21:24:10.865Z,20.20
2018-08-07T21:26:39.520Z,20.10
2018-08-07T21:29:08.133Z,20.10
2018-08-07T21:31:36.808Z,20.10
2018-08-07T21:34:05.486Z,20.00
2018-08-07T21:36:34.132Z,20.00
2018-08-07T21:39:02.864Z,20.00
2018-08-07T21:41:31.561Z,19.90
2018-08-07T21:44:00.140Z,19.90
2018-08-07T21:48:57.127Z,19.90
2018-08-07T21:51:25.761Z,20.00
2018-08-07T21:56:22.594Z,19.90
2018-08-07T21:58:51.291Z,19.90
2018-08-07T22:01:19.978Z,19.80
2018-08-07T22:06:16.911Z,19.70
2018-08-07T22:08:45.509Z,19.70
2018-08-07T22:11:14.399Z,19.70
2018-08-07T22:13:42.985Z,19.70
2018-08-07T22:16:11.634Z,19.70
2018-08-07T22:18:40.260Z,19.70
2018-08-07T22:21:08.941Z,19.70
2018-08-07T22:23:37.602Z,19.70
2018-08-07T22:26:06.308Z,19.70
2018-08-07T22:28:34.973Z,19.70
2018-08-07T22:31:03.664Z,19.70
2018-08-07T22:33:32.329Z,19.80
2018-08-07T22:36:01.028Z,19.70
2018-08-07T22:38:29.681Z,19.60
2018-08-07T22:40:58.185Z,19.60
2018-08-07T22:43:26.826Z,19.60
2018-08-07T22:45:55.518Z,19.60
2018-08-07T22:48:24.191Z,19.60
2018-08-07T22:50:52.808Z,19.60
2018-08-07T22:53:21.494Z,19.60
2018-08-07T22:55:50.164Z,19.60
2018-08-07T22:58:18.798Z,19.60
2018-08-07T23:00:47.332Z,19.50
2018-08-07T23:03:15.950Z,19.50
2018-08-07T23:05:44.572Z,19.50
2018-08-07T23:08:13.232Z,19.60
2018-08-07T23:10:41.812Z,19.50
2018-08-07T23:13:10.436Z,19.50
2018-08-07T23:15:39.040Z,19.50
2018-08-07T23:18:07.779Z,19.50
2018-08-07T23:20:36.448Z,19.40
2018-08-07T23:23:05.106Z,19.40
2018-08-07T23:25:33.743Z,19.30
2018-08-07T23:28:02.366Z,19.30
2018-08-07T23:30:30.977Z,19.30
2018-08-07T23:32:59.601Z,19.40
2018-08-07T23:35:28.173Z,19.40
2018-08-07T23:37:56.792Z,19.40
2018-08-07T23:40:25.323Z,19.30
2018-08-07T23:42:53.940Z,19.30
2018-08-07T23:45:22.559Z,19.20
2018-08-07T23:47:51.083Z,19.10
2018-08-07T23:50:19.722Z,19.10
2018-08-07T23:52:48.345Z,19.10
2018-08-07T23:55:16.959Z,19.10
2018-08-07T23:57:45.569Z,19.10
